N469ER KSYR-KSYR
Flight info
| Callsign | N469ER |
|---|---|
| Flight time | 0h 8m |
| Altitude | |
| Route | |
| Aircraft | C172/L-VGD/C |
Departure
| Time | 2026-04-27 21:10 |
|---|---|
| Airport | Syracuse Hancock International Airport (KSYR) |
Arrival
| Time | 2026-04-27 21:19 |
|---|---|
| Airport | Syracuse Hancock International Airport (KSYR) |
| Time | Latitude | Longitude | Altitude | Speed | Heading |
|---|---|---|---|---|---|
| 2026-04-27 21:01 | 43.10516 | -76.11392 | 422 ft | 0 kts | 118° |
| 2026-04-27 21:01 | 43.10516 | -76.11391 | 422 ft | 1 kts | 118° |
| 2026-04-27 21:02 | 43.10520 | -76.11364 | 409 ft | 6 kts | 47° |
| 2026-04-27 21:02 | 43.10593 | -76.11330 | 419 ft | 12 kts | 22° |
| 2026-04-27 21:02 | 43.10701 | -76.11298 | 420 ft | 17 kts | 342° |
| 2026-04-27 21:02 | 43.10739 | -76.11411 | 423 ft | 16 kts | 266° |
| 2026-04-27 21:03 | 43.10730 | -76.11644 | 421 ft | 31 kts | 268° |
| 2026-04-27 21:03 | 43.10718 | -76.11954 | 423 ft | 31 kts | 264° |
| 2026-04-27 21:03 | 43.10676 | -76.12203 | 425 ft | 25 kts | 267° |
| 2026-04-27 21:03 | 43.10666 | -76.12452 | 427 ft | 24 kts | 272° |
| 2026-04-27 21:04 | 43.10736 | -76.12533 | 425 ft | 14 kts | 109° |
| 2026-04-27 21:04 | 43.10702 | -76.12539 | 429 ft | 5 kts | 301° |
| 2026-04-27 21:04 | 43.10728 | -76.12549 | 428 ft | 3 kts | 332° |
| 2026-04-27 21:04 | 43.10732 | -76.12556 | 420 ft | 0 kts | 306° |
| 2026-04-27 21:08 | 43.10733 | -76.12557 | 428 ft | 1 kts | 310° |
| 2026-04-27 21:09 | 43.10760 | -76.12560 | 428 ft | 6 kts | 0° |
| 2026-04-27 21:09 | 43.10817 | -76.12527 | 428 ft | 9 kts | 75° |
| 2026-04-27 21:09 | 43.10828 | -76.12223 | 424 ft | 61 kts | 88° |
| 2026-04-27 21:09 | 43.10859 | -76.11508 | 549 ft | 83 kts | 88° |
| 2026-04-27 21:10 | 43.10869 | -76.10650 | 756 ft | 94 kts | 85° |
| 2026-04-27 21:10 | 43.10873 | -76.09740 | 997 ft | 96 kts | 91° |
| 2026-04-27 21:10 | 43.10547 | -76.09054 | 1282 ft | 93 kts | 158° |
| 2026-04-27 21:10 | 43.09904 | -76.08906 | 1531 ft | 92 kts | 170° |
| 2026-04-27 21:11 | 43.09542 | -76.09425 | 1742 ft | 101 kts | 268° |
| 2026-04-27 21:11 | 43.09596 | -76.10443 | 1735 ft | 108 kts | 270° |
| 2026-04-27 21:11 | 43.09625 | -76.11490 | 1696 ft | 113 kts | 268° |
| 2026-04-27 21:11 | 43.09661 | -76.12558 | 1641 ft | 109 kts | 270° |
| 2026-04-27 21:12 | 43.09726 | -76.13531 | 1691 ft | 97 kts | 272° |
| 2026-04-27 21:12 | 43.09797 | -76.14422 | 1684 ft | 93 kts | 274° |
| 2026-04-27 21:12 | 43.09856 | -76.15308 | 1705 ft | 95 kts | 271° |
| 2026-04-27 21:12 | 43.09966 | -76.16198 | 1662 ft | 95 kts | 321° |
| 2026-04-27 21:13 | 43.10534 | -76.16039 | 1583 ft | 90 kts | 53° |
| 2026-04-27 21:13 | 43.10714 | -76.15310 | 1473 ft | 75 kts | 87° |
| 2026-04-27 21:13 | 43.10745 | -76.14554 | 1165 ft | 73 kts | 87° |
| 2026-04-27 21:13 | 43.10767 | -76.13871 | 883 ft | 74 kts | 83° |
| 2026-04-27 21:14 | 43.10803 | -76.13178 | 678 ft | 75 kts | 85° |
| 2026-04-27 21:14 | 43.10825 | -76.12487 | 463 ft | 66 kts | 88° |
| 2026-04-27 21:14 | 43.10838 | -76.11984 | 420 ft | 50 kts | 88° |
| 2026-04-27 21:14 | 43.10867 | -76.11307 | 475 ft | 85 kts | 85° |
| 2026-04-27 21:15 | 43.10895 | -76.10426 | 657 ft | 98 kts | 86° |
| 2026-04-27 21:15 | 43.10785 | -76.09514 | 948 ft | 103 kts | 129° |
| 2026-04-27 21:15 | 43.10212 | -76.09606 | 1190 ft | 98 kts | 255° |
| 2026-04-27 21:15 | 43.10108 | -76.10610 | 1203 ft | 120 kts | 266° |
| 2026-04-27 21:16 | 43.10041 | -76.11779 | 1191 ft | 121 kts | 267° |
| 2026-04-27 21:16 | 43.09976 | -76.12865 | 1243 ft | 106 kts | 266° |
| 2026-04-27 21:16 | 43.09925 | -76.13841 | 1301 ft | 101 kts | 268° |
| 2026-04-27 21:16 | 43.09912 | -76.14794 | 1407 ft | 99 kts | 269° |
| 2026-04-27 21:17 | 43.09946 | -76.15716 | 1501 ft | 98 kts | 270° |
| 2026-04-27 21:17 | 43.10134 | -76.16570 | 1552 ft | 93 kts | 324° |
| 2026-04-27 21:17 | 43.10666 | -76.16533 | 1383 ft | 87 kts | 73° |
| 2026-04-27 21:17 | 43.10716 | -76.15562 | 1055 ft | 106 kts | 88° |
| 2026-04-27 21:18 | 43.10732 | -76.14685 | 1052 ft | 78 kts | 83° |
| 2026-04-27 21:18 | 43.10769 | -76.13953 | 906 ft | 79 kts | 81° |
| 2026-04-27 21:18 | 43.10793 | -76.13226 | 778 ft | 72 kts | 82° |
| 2026-04-27 21:18 | 43.10826 | -76.12515 | 453 ft | 73 kts | 90° |
| 2026-04-27 21:19 | 43.10841 | -76.11976 | 420 ft | 47 kts | 91° |
| 2026-04-27 21:19 | 43.10855 | -76.11334 | 441 ft | 86 kts | 86° |
| 2026-04-27 21:19 | 43.10903 | -76.10514 | 767 ft | 74 kts | 81° |
| 2026-04-27 21:20 | 43.10508 | -76.09628 | 1240 ft | 78 kts | 227° |
| 2026-04-27 21:20 | 43.10368 | -76.10454 | 1221 ft | 110 kts | 268° |
| 2026-04-27 21:20 | 43.10331 | -76.11573 | 1258 ft | 122 kts | 265° |
| 2026-04-27 21:20 | 43.10272 | -76.12752 | 1313 ft | 126 kts | 267° |
| 2026-04-27 21:21 | 43.10199 | -76.13939 | 1378 ft | 120 kts | 263° |
| 2026-04-27 21:21 | 43.10144 | -76.15000 | 1446 ft | 99 kts | 296° |
| 2026-04-27 21:21 | 43.10439 | -76.14688 | 1484 ft | 79 kts | 86° |
| 2026-04-27 21:21 | 43.10671 | -76.13932 | 1301 ft | 92 kts | 65° |
| 2026-04-27 21:22 | 43.10823 | -76.13100 | 1174 ft | 93 kts | 94° |
| 2026-04-27 21:22 | 43.10808 | -76.12220 | 1081 ft | 91 kts | 83° |
| 2026-04-27 21:22 | 43.10868 | -76.11331 | 922 ft | 96 kts | 86° |
| 2026-04-27 21:22 | 43.10906 | -76.10355 | 841 ft | 115 kts | 83° |
| 2026-04-27 21:23 | 43.10672 | -76.09522 | 1294 ft | 92 kts | 173° |
| 2026-04-27 21:23 | 43.10300 | -76.10316 | 1170 ft | 126 kts | 258° |
| 2026-04-27 21:23 | 43.10142 | -76.11535 | 1079 ft | 133 kts | 262° |
| 2026-04-27 21:23 | 43.09987 | -76.12694 | 1036 ft | 121 kts | 263° |
| 2026-04-27 21:24 | 43.09833 | -76.13795 | 992 ft | 113 kts | 264° |
| 2026-04-27 21:24 | 43.09874 | -76.14737 | 1069 ft | 91 kts | 326° |
| 2026-04-27 21:24 | 43.10394 | -76.14398 | 826 ft | 103 kts | 53° |
| 2026-04-27 21:24 | 43.10741 | -76.13532 | 610 ft | 106 kts | 77° |
| 2026-04-27 21:25 | 43.10817 | -76.12723 | 493 ft | 74 kts | 86° |
| 2026-04-27 21:25 | 43.10845 | -76.12113 | 428 ft | 51 kts | 89° |
| 2026-04-27 21:25 | 43.10858 | -76.11873 | 421 ft | 0 kts | 59° |
| 2026-04-27 21:25 | 43.10858 | -76.11872 | 417 ft | 3 kts | 60° |
| 2026-04-27 21:26 | 43.10875 | -76.11841 | 416 ft | 0 kts | 47° |
| 2026-04-27 21:26 | 43.10892 | -76.11824 | 416 ft | 0 kts | 31° |
| 2026-04-27 21:29 | 43.10894 | -76.11823 | 416 ft | 3 kts | 31° |
| 2026-04-27 21:30 | 43.10917 | -76.11810 | 419 ft | 0 kts | 19° |
| 2026-04-27 21:32 | 43.10924 | -76.11807 | 419 ft | 6 kts | 19° |
| 2026-04-27 21:32 | 43.10927 | -76.11805 | 419 ft | 0 kts | 19° |
| 2026-04-27 21:34 | 43.10932 | -76.11804 | 414 ft | 6 kts | 359° |
| 2026-04-27 21:34 | 43.10969 | -76.11893 | 418 ft | 17 kts | 274° |
| 2026-04-27 21:35 | 43.10963 | -76.12099 | 423 ft | 22 kts | 277° |
| 2026-04-27 21:35 | 43.11051 | -76.12191 | 420 ft | 17 kts | 341° |
| 2026-04-27 21:35 | 43.11094 | -76.12211 | 423 ft | 0 kts | 342° |